Time;durP1;ratioP1;P1;durP2;ratioP2;P2;SDS_P1;SDS_P2;PMS_P1;PMS_P2;Temp;Humidity;BMP_temperature;BMP_pressure;BME280_temperature;BME280_humidity;BME280_pressure;Samples;Min_cycle;Max_cycle;Signal;HPM_P1;HPM_P2
2023/01/23 00:00:45;;;;;;;15.93;13.33;;;;;;;-1.56;100.00;98188.34;5004924;28;20254;-65
2023/01/23 00:03:12;;;;;;;14.30;12.23;;;;;;;-1.54;100.00;98195.13;4989083;28;20660;-64
2023/01/23 00:05:41;;;;;;;18.47;14.77;;;;;;;-1.55;100.00;98185.66;5005826;28;20201;-64
2023/01/23 00:08:08;;;;;;;17.87;14.03;;;;;;;-1.54;100.00;98189.94;5006219;28;20243;-66
2023/01/23 00:10:37;;;;;;;15.37;13.73;;;;;;;-1.55;100.00;98193.47;4980990;28;20219;-64
2023/01/23 00:13:06;;;;;;;18.10;15.13;;;;;;;-1.57;100.00;98195.31;4991648;28;20832;-67
2023/01/23 00:15:33;;;;;;;19.03;15.57;;;;;;;-1.58;100.00;98198.81;5004780;28;20619;-64
2023/01/23 00:18:01;;;;;;;17.47;13.93;;;;;;;-1.50;100.00;98201.03;4985518;28;22013;-66
2023/01/23 00:20:28;;;;;;;17.93;14.73;;;;;;;-1.51;100.00;98205.38;5005808;28;20207;-64
2023/01/23 00:22:57;;;;;;;18.33;15.20;;;;;;;-1.56;100.00;98204.78;5003367;28;20796;-66
2023/01/23 00:25:25;;;;;;;18.53;15.77;;;;;;;-1.57;100.00;98208.31;5008260;28;20196;-65
2023/01/23 00:27:53;;;;;;;18.43;16.23;;;;;;;-1.57;100.00;98203.09;4938174;28;20762;-66
2023/01/23 00:30:20;;;;;;;18.03;15.80;;;;;;;-1.52;100.00;98206.28;5004242;28;20846;-64
2023/01/23 00:32:48;;;;;;;19.90;17.13;;;;;;;-1.51;100.00;98199.34;4995462;28;20204;-67
2023/01/23 00:35:15;;;;;;;17.70;15.57;;;;;;;-1.51;100.00;98189.78;4984789;28;20407;-65
2023/01/23 00:37:43;;;;;;;17.10;15.30;;;;;;;-1.48;100.00;98193.97;5007716;28;20196;-66
2023/01/23 00:40:13;;;;;;;17.83;15.83;;;;;;;-1.55;100.00;98190.00;5005460;28;20208;-64
2023/01/23 00:42:40;;;;;;;18.13;15.23;;;;;;;-1.58;100.00;98187.56;4959347;28;20759;-67
2023/01/23 00:45:08;;;;;;;18.17;16.07;;;;;;;-1.68;100.00;98182.06;5007266;28;20192;-64
2023/01/23 00:47:36;;;;;;;17.90;15.70;;;;;;;-1.70;100.00;98182.13;5004983;28;20196;-65
2023/01/23 00:50:03;;;;;;;19.33;15.67;;;;;;;-1.68;100.00;98187.25;4975159;28;20219;-63
2023/01/23 00:52:31;;;;;;;19.90;15.83;;;;;;;-1.70;100.00;98196.91;4999007;28;20239;-64
2023/01/23 00:54:59;;;;;;;19.73;16.30;;;;;;;-1.76;100.00;98190.25;5010041;28;20621;-63
2023/01/23 00:57:27;;;;;;;18.57;14.37;;;;;;;-1.63;100.00;98198.25;4959374;28;22432;-64
2023/01/23 00:59:55;;;;;;;17.10;14.97;;;;;;;-1.66;100.00;98201.00;5008667;28;20425;-64
2023/01/23 01:02:22;;;;;;;16.00;14.30;;;;;;;-1.61;100.00;98204.19;5008668;28;20203;-64
2023/01/23 01:04:50;;;;;;;20.80;14.07;;;;;;;-1.57;100.00;98210.06;4991615;28;20200;-65
2023/01/23 01:07:18;;;;;;;17.33;15.53;;;;;;;-1.57;100.00;98210.91;5004363;28;20219;-63
2023/01/23 01:09:46;;;;;;;18.40;16.07;;;;;;;-1.58;100.00;98213.56;5010218;28;20229;-64
2023/01/23 01:12:13;;;;;;;18.10;14.93;;;;;;;-1.60;100.00;98209.28;5008554;28;20811;-63
2023/01/23 01:14:42;;;;;;;16.83;14.17;;;;;;;-1.60;100.00;98209.28;4965110;28;20300;-64
2023/01/23 01:17:10;;;;;;;18.37;14.13;;;;;;;-1.58;100.00;98200.56;4960513;28;20563;-64
2023/01/23 01:19:38;;;;;;;15.80;13.93;;;;;;;-1.62;100.00;98208.53;5000377;28;20228;-64
2023/01/23 01:22:05;;;;;;;17.70;14.43;;;;;;;-1.62;100.00;98210.31;5003794;28;20201;-64
2023/01/23 01:24:33;;;;;;;19.07;15.07;;;;;;;-1.57;100.00;98215.25;5009130;28;20204;-64
2023/01/23 01:27:00;;;;;;;15.80;14.10;;;;;;;-1.57;100.00;98221.31;5005581;28;20588;-62
2023/01/23 01:29:28;;;;;;;16.90;14.23;;;;;;;-1.60;100.00;98222.28;5009795;28;20228;-63
2023/01/23 01:31:57;;;;;;;17.83;14.37;;;;;;;-1.56;100.00;98232.53;4962114;28;20216;-63
2023/01/23 01:34:24;;;;;;;15.50;13.83;;;;;;;-1.59;100.00;98217.94;5008959;28;20250;-63
2023/01/23 01:36:52;;;;;;;17.07;14.20;;;;;;;-1.56;100.00;98229.91;5004502;28;20262;-63
2023/01/23 01:39:19;;;;;;;19.33;16.83;;;;;;;-1.67;100.00;98231.34;5009975;28;20509;-65
2023/01/23 01:41:47;;;;;;;20.57;16.27;;;;;;;-1.79;100.00;98232.00;4988918;28;20212;-62
2023/01/23 01:44:17;;;;;;;16.37;14.57;;;;;;;-1.77;100.00;98224.94;5007514;28;20200;-61
2023/01/23 01:46:45;;;;;;;18.90;14.80;;;;;;;-1.79;100.00;98219.81;4965095;28;20200;-63
2023/01/23 01:49:15;;;;;;;20.27;16.83;;;;;;;-1.68;100.00;98229.66;5005375;28;20345;-64
2023/01/23 01:51:46;;;;;;;16.20;14.50;;;;;;;-1.65;100.00;98228.66;5007993;28;20240;-64
2023/01/23 01:54:18;;;;;;;16.50;13.60;;;;;;;-1.80;100.00;98219.91;5007255;28;20703;-64
2023/01/23 01:56:49;;;;;;;17.80;15.30;;;;;;;-1.78;100.00;98218.09;4987807;28;20235;-62
2023/01/23 01:59:18;;;;;;;14.83;12.67;;;;;;;-1.77;100.00;98219.75;5005928;28;20220;-63
2023/01/23 02:01:47;;;;;;;18.97;14.77;;;;;;;-1.85;100.00;98208.94;4999112;28;20205;-63
2023/01/23 02:04:17;;;;;;;16.20;13.33;;;;;;;-1.76;100.00;98213.63;4979657;28;20424;-65
2023/01/23 02:06:45;;;;;;;15.23;13.63;;;;;;;-1.72;100.00;98222.09;5007953;28;20199;-63
2023/01/23 02:09:17;;;;;;;18.93;16.17;;;;;;;-1.81;100.00;98216.47;5005053;28;20397;-65
2023/01/23 02:11:45;;;;;;;18.03;14.63;;;;;;;-1.86;100.00;98221.06;4989957;28;20229;-63
2023/01/23 02:14:13;;;;;;;16.53;13.73;;;;;;;-1.95;100.00;98208.56;5006401;28;22180;-63
2023/01/23 02:16:45;;;;;;;16.07;13.70;;;;;;;-2.07;100.00;98210.88;5004413;28;20311;-64
2023/01/23 02:19:24;;;;;;;16.63;13.80;;;;;;;-2.06;100.00;98214.31;4962461;28;20747;-64
2023/01/23 02:21:56;;;;;;;15.00;13.23;;;;;;;-2.04;100.00;98218.53;4981837;28;20215;-64
2023/01/23 02:24:28;;;;;;;17.27;14.00;;;;;;;-2.10;100.00;98205.00;4979012;28;20213;-63
2023/01/23 02:26:57;;;;;;;17.17;14.07;;;;;;;-2.16;100.00;98213.94;4984194;28;20300;-64
2023/01/23 02:29:25;;;;;;;17.90;14.20;;;;;;;-2.27;100.00;98209.31;5008087;28;20212;-63
2023/01/23 02:31:54;;;;;;;15.73;13.53;;;;;;;-2.44;100.00;98207.56;5006322;28;20378;-65
2023/01/23 02:34:24;;;;;;;15.47;13.70;;;;;;;-2.59;100.00;98205.72;4964540;28;20208;-63
2023/01/23 02:36:52;;;;;;;16.33;13.50;;;;;;;-2.63;100.00;98215.44;5006619;28;20399;-64
2023/01/23 02:39:20;;;;;;;14.00;12.50;;;;;;;-2.65;100.00;98222.44;5006866;28;20225;-63
2023/01/23 02:41:49;;;;;;;15.10;12.40;;;;;;;-2.73;100.00;98204.66;4981705;28;20434;-65
2023/01/23 02:44:24;;;;;;;16.43;12.80;;;;;;;-2.71;100.00;98220.13;5010994;28;20204;-62
2023/01/23 02:46:52;;;;;;;16.33;13.60;;;;;;;-2.79;100.00;98210.97;5005825;28;20212;-64
2023/01/23 02:49:20;;;;;;;16.30;12.60;;;;;;;-2.85;100.00;98206.09;4963434;28;20235;-63
2023/01/23 02:51:48;;;;;;;15.83;13.47;;;;;;;-2.74;100.00;98215.94;5003214;28;20786;-64
2023/01/23 02:54:16;;;;;;;16.00;14.23;;;;;;;-2.60;100.00;98225.66;5009262;28;20208;-63
2023/01/23 02:56:43;;;;;;;16.30;13.67;;;;;;;-2.45;100.00;98223.19;4986621;28;20840;-63
2023/01/23 03:01:59;;;;;;;18.17;15.40;;;;;;;-2.43;100.00;98227.41;4997920;28;20243;-66
2023/01/23 03:04:26;;;;;;;18.23;13.87;;;;;;;-2.46;100.00;98222.38;4961515;28;20283;-63
2023/01/23 03:06:54;;;;;;;16.27;14.00;;;;;;;-2.50;100.00;98213.91;5000308;28;20203;-64
2023/01/23 03:09:22;;;;;;;19.43;13.93;;;;;;;-2.58;100.00;98210.00;5008042;28;20223;-65
2023/01/23 03:11:49;;;;;;;16.07;13.57;;;;;;;-2.57;100.00;98217.72;4992039;28;20204;-64
2023/01/23 03:14:21;;;;;;;17.10;13.87;;;;;;;-2.60;100.00;98217.00;5004140;28;20216;-66
2023/01/23 03:16:51;;;;;;;16.10;13.30;;;;;;;-2.59;100.00;98226.47;5006592;28;20224;-63
2023/01/23 03:19:22;;;;;;;19.00;14.10;;;;;;;-2.53;100.00;98223.56;5005282;28;20258;-64
2023/01/23 03:21:49;;;;;;;19.83;15.87;;;;;;;-2.56;100.00;98231.50;4959995;28;20702;-65
2023/01/23 03:24:17;;;;;;;18.00;14.33;;;;;;;-2.56;100.00;98229.78;4935084;28;20354;-66
2023/01/23 03:26:46;;;;;;;20.13;14.57;;;;;;;-2.54;100.00;98227.09;4988793;28;20211;-66
2023/01/23 03:32:00;;;;;;;15.90;14.20;;;;;;;-2.48;100.00;98225.03;4987160;28;20216;-64
2023/01/23 03:34:30;;;;;;;20.17;14.93;;;;;;;-2.42;100.00;98215.25;5008180;28;20196;-66
2023/01/23 03:36:59;;;;;;;15.93;13.30;;;;;;;-2.44;100.00;98204.97;5003007;28;20220;-65
2023/01/23 03:42:12;;;;;;;22.20;15.87;;;;;;;-2.40;100.00;98229.00;5005542;28;20227;-66
2023/01/23 03:44:39;;;;;;;21.27;15.77;;;;;;;-2.36;100.00;98228.78;4989688;28;20671;-66
2023/01/23 03:47:07;;;;;;;19.03;15.70;;;;;;;-2.40;100.00;98226.41;4983275;28;20722;-65
2023/01/23 03:49:36;;;;;;;17.03;14.03;;;;;;;-2.52;100.00;98220.06;5006632;28;20225;-66
2023/01/23 03:52:04;;;;;;;18.97;15.90;;;;;;;-2.63;100.00;98218.84;5001775;28;20188;-63
2023/01/23 03:54:32;;;;;;;19.90;15.77;;;;;;;-2.71;100.00;98225.31;4963063;28;20220;-65
2023/01/23 03:56:59;;;;;;;20.23;14.63;;;;;;;-2.76;100.00;98223.78;5005590;28;20572;-64
2023/01/23 03:59:27;;;;;;;18.53;14.43;;;;;;;-2.70;100.00;98227.84;5006807;28;20301;-66
2023/01/23 04:01:56;;;;;;;22.60;15.37;;;;;;;-2.65;100.00;98225.03;4968612;28;20521;-64
2023/01/23 04:04:24;;;;;;;20.63;15.93;;;;;;;-2.67;100.00;98219.91;5002537;28;20204;-64
2023/01/23 04:06:53;;;;;;;19.67;15.10;;;;;;;-2.68;100.00;98230.34;5002978;28;20632;-63
2023/01/23 04:09:24;;;;;;;18.20;14.63;;;;;;;-2.59;100.00;98221.28;4963172;28;26043;-67
2023/01/23 04:11:52;;;;;;;21.40;15.30;;;;;;;-2.51;100.00;98234.72;4996202;28;20424;-63
2023/01/23 04:14:20;;;;;;;19.23;15.20;;;;;;;-2.46;100.00;98230.16;4995007;28;20291;-65
2023/01/23 04:16:48;;;;;;;20.77;14.63;;;;;;;-2.38;100.00;98237.56;4989341;28;20239;-64
2023/01/23 04:19:18;;;;;;;22.67;15.70;;;;;;;-2.34;100.00;98241.66;4971337;28;22611;-66
2023/01/23 04:21:47;;;;;;;23.17;15.93;;;;;;;-2.31;100.00;98238.91;5003737;28;20205;-63
2023/01/23 04:24:16;;;;;;;18.10;14.83;;;;;;;-2.31;100.00;98238.09;5004544;28;20306;-65
2023/01/23 04:26:44;;;;;;;21.80;16.27;;;;;;;-2.24;100.00;98242.06;4959956;28;20647;-61
2023/01/23 04:29:12;;;;;;;21.37;15.63;;;;;;;-2.25;100.00;98240.38;5005739;28;20314;-65
2023/01/23 04:31:40;;;;;;;17.97;14.47;;;;;;;-2.22;100.00;98227.25;4994317;28;20208;-65
2023/01/23 04:34:08;;;;;;;18.60;15.20;;;;;;;-2.28;100.00;98217.16;4988196;28;20286;-63
2023/01/23 04:36:35;;;;;;;16.10;14.23;;;;;;;-2.23;100.00;98208.25;5009244;28;20683;-63
2023/01/23 04:39:03;;;;;;;18.57;15.63;;;;;;;-2.17;100.00;98224.41;5009954;28;20524;-62
2023/01/23 04:41:33;;;;;;;18.33;14.87;;;;;;;-2.16;100.00;98224.31;4967132;28;20220;-65
2023/01/23 04:44:18;;;;;;;23.50;16.37;;;;;;;-2.14;100.00;98222.50;5009257;28;20603;-63
2023/01/23 04:46:48;;;;;;;18.20;15.20;;;;;;;-2.14;100.00;98237.25;5014037;28;20200;-63
2023/01/23 04:49:17;;;;;;;21.27;15.93;;;;;;;-2.16;100.00;98226.91;4972582;28;20927;-63
2023/01/23 04:51:46;;;;;;;19.27;14.73;;;;;;;-2.20;100.00;98225.41;5005324;28;20617;-64
2023/01/23 04:54:14;;;;;;;18.83;16.13;;;;;;;-2.25;100.00;98224.81;5010167;28;20298;-62
2023/01/23 04:56:44;;;;;;;21.47;16.17;;;;;;;-2.35;100.00;98219.22;4964869;28;21140;-64
2023/01/23 04:59:11;;;;;;;17.40;15.20;;;;;;;-2.44;100.00;98224.88;5012755;28;20244;-62
2023/01/23 05:01:39;;;;;;;20.60;14.90;;;;;;;-2.51;100.00;98227.78;5006940;28;20623;-64
2023/01/23 05:04:07;;;;;;;19.70;15.17;;;;;;;-2.56;100.00;98232.38;4974726;28;20381;-64
2023/01/23 05:06:34;;;;;;;20.87;16.03;;;;;;;-2.62;100.00;98225.72;5005519;28;20208;-65
2023/01/23 05:09:02;;;;;;;18.77;14.47;;;;;;;-2.60;100.00;98237.78;5010719;28;20219;-63
2023/01/23 05:11:30;;;;;;;20.47;15.03;;;;;;;-2.56;100.00;98242.75;5002953;28;20310;-64
2023/01/23 05:13:59;;;;;;;18.87;16.00;;;;;;;-2.54;100.00;98243.50;4963848;28;20221;-64
2023/01/23 05:16:26;;;;;;;19.17;15.73;;;;;;;-2.51;100.00;98250.28;5007316;28;20223;-64
2023/01/23 05:18:54;;;;;;;19.60;15.37;;;;;;;-2.56;100.00;98249.69;4992850;28;20229;-64
2023/01/23 05:21:21;;;;;;;20.77;15.70;;;;;;;-2.65;100.00;98244.03;4984764;28;20622;-64
2023/01/23 05:23:49;;;;;;;20.60;14.90;;;;;;;-2.70;100.00;98245.16;5011114;28;20291;-63
2023/01/23 05:26:16;;;;;;;21.07;15.97;;;;;;;-2.72;100.00;98247.84;4990833;28;20208;-63
2023/01/23 05:28:44;;;;;;;20.93;16.20;;;;;;;-2.78;100.00;98248.97;4964971;28;21473;-64
2023/01/23 05:31:13;;;;;;;19.93;16.73;;;;;;;-2.81;100.00;98248.28;4953706;28;20446;-63
2023/01/23 05:33:41;;;;;;;16.17;13.53;;;;;;;-2.80;100.00;98247.38;4999436;28;20216;-65
2023/01/23 05:36:08;;;;;;;19.07;14.33;;;;;;;-2.78;100.00;98254.16;5004765;28;20856;-64
2023/01/23 05:38:36;;;;;;;18.57;15.30;;;;;;;-2.79;100.00;98257.66;4990377;28;20225;-66
2023/01/23 05:41:04;;;;;;;18.60;15.07;;;;;;;-2.83;100.00;98265.69;5007328;28;20200;-64
2023/01/23 05:43:33;;;;;;;20.83;15.03;;;;;;;-2.85;100.00;98268.34;5011981;28;20215;-65
2023/01/23 05:46:02;;;;;;;21.17;15.40;;;;;;;-2.80;100.00;98273.31;4986160;28;20299;-63
2023/01/23 05:48:32;;;;;;;23.33;17.00;;;;;;;-2.76;100.00;98275.69;5006856;28;20228;-66
2023/01/23 05:51:02;;;;;;;22.37;16.60;;;;;;;-2.71;100.00;98279.81;5006974;28;20205;-63
2023/01/23 05:53:29;;;;;;;21.90;15.57;;;;;;;-2.69;100.00;98284.03;4991157;28;20684;-66
2023/01/23 05:55:57;;;;;;;21.07;16.20;;;;;;;-2.74;100.00;98295.50;5008489;28;20216;-63
2023/01/23 05:58:25;;;;;;;22.30;16.63;;;;;;;-2.79;100.00;98293.16;5004725;28;20244;-65
2023/01/23 06:00:52;;;;;;;19.70;14.83;;;;;;;-2.86;100.00;98289.16;5009272;28;20435;-63
2023/01/23 06:03:20;;;;;;;22.43;16.17;;;;;;;-2.86;100.00;98304.72;4961369;28;20501;-67
2023/01/23 06:05:49;;;;;;;19.37;14.97;;;;;;;-2.82;100.00;98312.28;5009461;28;20618;-67
2023/01/23 06:08:16;;;;;;;22.53;16.27;;;;;;;-2.66;100.00;98312.41;5005963;28;20410;-66
2023/01/23 06:10:44;;;;;;;20.00;15.87;;;;;;;-2.60;100.00;98311.28;4991610;28;20215;-65
2023/01/23 06:13:11;;;;;;;21.30;17.13;;;;;;;-2.54;100.00;98321.38;5007191;28;20394;-65
2023/01/23 06:15:39;;;;;;;22.23;16.03;;;;;;;-2.53;100.00;98322.19;4980934;28;20298;-65
2023/01/23 06:18:06;;;;;;;20.90;15.80;;;;;;;-2.50;100.00;98328.09;4965850;28;20379;-65
2023/01/23 06:20:34;;;;;;;19.53;15.47;;;;;;;-2.52;100.00;98324.72;5011256;28;20386;-67
2023/01/23 06:23:03;;;;;;;19.70;15.40;;;;;;;-2.60;100.00;98328.59;5011446;28;20212;-65
2023/01/23 06:25:31;;;;;;;21.27;15.67;;;;;;;-2.72;100.00;98328.28;4994502;28;20212;-65
2023/01/23 06:27:58;;;;;;;19.70;16.00;;;;;;;-2.74;100.00;98326.66;5015484;28;20227;-65
2023/01/23 06:30:26;;;;;;;22.33;16.93;;;;;;;-2.81;100.00;98329.53;5003419;28;20204;-63
2023/01/23 06:32:54;;;;;;;23.10;16.40;;;;;;;-2.76;100.00;98335.34;4976713;28;20212;-63
2023/01/23 06:35:22;;;;;;;23.80;16.80;;;;;;;-2.77;100.00;98332.84;4982522;28;20433;-65
2023/01/23 06:37:49;;;;;;;21.93;16.60;;;;;;;-2.86;100.00;98323.72;5001597;28;20375;-64
2023/01/23 06:40:19;;;;;;;20.60;16.10;;;;;;;-2.84;100.00;98340.06;4971395;28;20440;-64
2023/01/23 06:42:47;;;;;;;22.63;17.10;;;;;;;-2.79;100.00;98345.03;4998748;28;20768;-63
2023/01/23 06:45:14;;;;;;;23.00;16.70;;;;;;;-2.75;100.00;98341.38;4999830;28;20201;-65
2023/01/23 06:47:42;;;;;;;21.53;17.00;;;;;;;-2.72;100.00;98345.56;5003935;28;20291;-65
2023/01/23 06:50:10;;;;;;;22.37;17.20;;;;;;;-2.70;100.00;98349.78;4977799;28;20575;-66
2023/01/23 06:52:38;;;;;;;25.43;17.90;;;;;;;-2.69;100.00;98356.66;5010856;28;20208;-65
2023/01/23 06:55:06;;;;;;;26.97;20.43;;;;;;;-2.72;100.00;98354.22;4970470;28;20216;-64
2023/01/23 06:57:35;;;;;;;22.93;16.30;;;;;;;-2.72;100.00;98361.16;5007805;28;20205;-66
2023/01/23 07:00:04;;;;;;;20.07;15.57;;;;;;;-2.74;100.00;98370.75;5003165;28;20225;-63
2023/01/23 07:02:31;;;;;;;21.57;16.97;;;;;;;-2.77;100.00;98376.94;5007664;28;20266;-65
2023/01/23 07:04:59;;;;;;;21.30;17.10;;;;;;;-2.74;100.00;98374.19;4965537;28;20298;-64
2023/01/23 07:07:26;;;;;;;22.60;16.10;;;;;;;-2.72;100.00;98381.91;5008715;28;20200;-64
2023/01/23 07:09:54;;;;;;;24.30;17.00;;;;;;;-2.66;100.00;98384.22;4987578;28;20256;-63
2023/01/23 07:12:21;;;;;;;22.27;15.90;;;;;;;-2.63;100.00;98394.47;4984591;28;20835;-66
2023/01/23 07:14:50;;;;;;;20.47;15.70;;;;;;;-2.60;100.00;98386.53;5012526;28;20908;-65
2023/01/23 07:17:18;;;;;;;19.83;15.27;;;;;;;-2.51;100.00;98382.66;5001750;28;20208;-63
2023/01/23 07:19:45;;;;;;;27.40;18.03;;;;;;;-2.53;100.00;98377.56;4960934;28;20507;-66
2023/01/23 07:22:16;;;;;;;24.30;18.77;;;;;;;-2.52;100.00;98373.19;5006524;28;20422;-64
2023/01/23 07:24:44;;;;;;;20.90;16.80;;;;;;;-2.52;100.00;98386.16;4990981;28;20207;-65
2023/01/23 07:27:12;;;;;;;23.73;17.53;;;;;;;-2.49;100.00;98384.28;4984870;28;20436;-63
2023/01/23 07:29:39;;;;;;;21.87;17.90;;;;;;;-2.45;100.00;98385.00;5002077;28;20219;-64
2023/01/23 07:32:08;;;;;;;25.47;17.80;;;;;;;-2.39;100.00;98384.69;5002574;28;20270;-63
2023/01/23 07:34:37;;;;;;;26.97;18.23;;;;;;;-2.33;100.00;98381.81;5005031;28;20213;-64
2023/01/23 07:37:05;;;;;;;22.07;16.03;;;;;;;-2.18;100.00;98379.38;4960571;28;20743;-63
2023/01/23 07:39:33;;;;;;;25.37;18.43;;;;;;;-2.10;100.00;98379.81;4955527;28;20445;-62
2023/01/23 07:42:00;;;;;;;23.93;18.10;;;;;;;-2.06;100.00;98376.19;5006303;28;20200;-65
2023/01/23 07:44:28;;;;;;;24.77;17.97;;;;;;;-2.02;100.00;98376.03;5005099;28;20595;-62
2023/01/23 07:46:56;;;;;;;26.77;19.03;;;;;;;-1.96;100.00;98379.16;5009656;28;20503;-63
2023/01/23 07:49:25;;;;;;;23.00;16.47;;;;;;;-1.87;100.00;98374.44;4983360;28;20232;-61
2023/01/23 07:51:52;;;;;;;23.07;16.47;;;;;;;-1.82;100.00;98381.06;4998967;28;20963;-65
2023/01/23 07:54:20;;;;;;;21.70;16.70;;;;;;;-1.69;100.00;98386.50;4943414;28;20216;-64
2023/01/23 07:56:49;;;;;;;20.37;15.87;;;;;;;-1.65;100.00;98380.22;5008588;28;20779;-64
2023/01/23 07:59:17;;;;;;;20.23;15.33;;;;;;;-1.49;100.00;98385.50;5007776;28;20228;-64
2023/01/23 08:01:44;;;;;;;21.37;15.53;;;;;;;-1.42;100.00;98382.56;5000629;28;20418;-64
2023/01/23 08:04:12;;;;;;;21.47;15.77;;;;;;;-1.45;100.00;98383.59;5002244;28;20223;-64
2023/01/23 08:06:41;;;;;;;20.00;14.73;;;;;;;-1.31;100.00;98377.69;5001654;28;20204;-61
2023/01/23 08:09:08;;;;;;;19.73;15.00;;;;;;;-1.21;100.00;98384.06;4944072;28;20220;-64
2023/01/23 08:11:36;;;;;;;16.97;14.23;;;;;;;-1.07;100.00;98383.34;5006601;28;20437;-61
2023/01/23 08:14:03;;;;;;;23.20;18.67;;;;;;;-1.10;100.00;98396.53;5009273;28;20204;-63
2023/01/23 08:16:31;;;;;;;19.53;15.27;;;;;;;-1.13;100.00;98385.44;5004478;28;20216;-62
2023/01/23 08:18:59;;;;;;;16.57;14.13;;;;;;;-1.05;100.00;98385.88;5007112;28;20267;-65
2023/01/23 08:21:26;;;;;;;17.47;13.20;;;;;;;-0.94;100.00;98388.75;5010025;28;20310;-62
2023/01/23 08:23:55;;;;;;;14.57;12.93;;;;;;;-0.93;100.00;98387.84;4985953;28;20877;-64
2023/01/23 08:26:22;;;;;;;18.07;13.77;;;;;;;-0.88;100.00;98391.03;4959104;28;20584;-61
2023/01/23 08:28:50;;;;;;;16.40;13.73;;;;;;;-0.88;100.00;98392.78;5009365;28;20212;-64
2023/01/23 08:31:18;;;;;;;17.93;14.60;;;;;;;-0.71;100.00;98393.66;5005601;28;20212;-64
2023/01/23 08:33:45;;;;;;;17.67;14.43;;;;;;;-0.60;100.00;98391.28;5003967;28;20274;-64
2023/01/23 08:36:13;;;;;;;16.93;13.57;;;;;;;-0.34;100.00;98399.44;5003399;28;20204;-65
2023/01/23 08:38:41;;;;;;;15.30;13.80;;;;;;;-0.39;100.00;98391.03;4980338;28;20437;-63
2023/01/23 08:41:11;;;;;;;16.53;13.90;;;;;;;-0.40;100.00;98392.81;4959362;28;20228;-62
2023/01/23 08:43:40;;;;;;;15.40;13.40;;;;;;;-0.35;100.00;98385.56;5001504;28;20458;-61
2023/01/23 08:46:09;;;;;;;15.73;13.13;;;;;;;-0.47;100.00;98384.47;5006292;28;20651;-64
2023/01/23 08:48:37;;;;;;;16.23;13.23;;;;;;;-0.71;100.00;98389.25;5005778;28;20224;-62
2023/01/23 08:51:06;;;;;;;18.37;14.90;;;;;;;-0.80;100.00;98388.00;5007085;28;20425;-64
2023/01/23 08:53:34;;;;;;;16.70;13.10;;;;;;;-0.77;100.00;98392.22;5001511;28;20619;-62
2023/01/23 08:56:03;;;;;;;13.77;12.13;;;;;;;-0.86;100.00;98397.91;4943361;28;20798;-64
2023/01/23 08:58:32;;;;;;;13.57;11.30;;;;;;;-0.84;100.00;98399.50;5006216;28;20227;-62
2023/01/23 09:01:00;;;;;;;14.17;12.40;;;;;;;-0.88;100.00;98404.03;5008308;28;20222;-64
2023/01/23 09:03:28;;;;;;;14.33;12.80;;;;;;;-0.76;100.00;98414.72;5010772;28;20212;-63
2023/01/23 09:06:00;;;;;;;14.60;12.00;;;;;;;-0.70;100.00;98406.56;5006442;28;20434;-63
2023/01/23 09:08:28;;;;;;;15.10;12.83;;;;;;;-0.43;100.00;98411.19;5007594;28;20469;-63
2023/01/23 09:10:59;;;;;;;14.00;12.53;;;;;;;-0.08;100.00;98402.34;4977907;28;20216;-63
2023/01/23 09:13:27;;;;;;;15.90;13.40;;;;;;;0.21;100.00;98392.03;5008039;28;20212;-63
2023/01/23 09:15:56;;;;;;;14.53;12.70;;;;;;;0.44;100.00;98393.28;5008402;28;21577;-64
2023/01/23 09:18:24;;;;;;;14.13;12.60;;;;;;;0.54;100.00;98389.19;5010481;28;20220;-62
2023/01/23 09:20:52;;;;;;;14.60;13.00;;;;;;;0.61;100.00;98389.69;5011360;28;20310;-65
2023/01/23 09:23:19;;;;;;;13.87;12.47;;;;;;;0.74;100.00;98378.50;5010805;28;20580;-63
2023/01/23 09:25:47;;;;;;;14.80;12.30;;;;;;;0.83;100.00;98381.41;4979908;28;21254;-64
2023/01/23 09:28:15;;;;;;;15.43;13.17;;;;;;;0.76;100.00;98371.41;5018637;28;20224;-66
2023/01/23 09:30:42;;;;;;;13.60;12.10;;;;;;;0.65;100.00;98385.97;5009648;28;20761;-65
2023/01/23 09:33:11;;;;;;;14.50;12.73;;;;;;;0.40;100.00;98377.00;5013548;28;20201;-65
2023/01/23 09:35:39;;;;;;;14.70;12.37;;;;;;;0.36;100.00;98378.09;5012635;28;20216;-63
2023/01/23 09:38:07;;;;;;;16.13;13.47;;;;;;;0.22;100.00;98378.06;5011436;28;20318;-65
2023/01/23 09:40:37;;;;;;;15.30;12.37;;;;;;;0.31;100.00;98387.13;4989303;28;20727;-63
2023/01/23 09:43:13;;;;;;;13.87;12.40;;;;;;;0.38;100.00;98385.81;5003848;28;20212;-63
2023/01/23 09:45:42;;;;;;;19.47;14.87;;;;;;;0.16;100.00;98365.38;5003278;28;20473;-63
2023/01/23 09:48:17;;;;;;;15.00;12.87;;;;;;;0.02;100.00;98374.00;5019706;28;20286;-65
2023/01/23 09:50:53;;;;;;;17.77;13.50;;;;;;;-0.02;100.00;98373.31;5018804;28;20663;-65
2023/01/23 09:53:25;;;;;;;17.30;12.67;;;;;;;-0.07;100.00;98370.16;5015540;28;20234;-66
2023/01/23 09:55:57;;;;;;;16.03;14.27;;;;;;;0.15;100.00;98380.16;5018299;28;20737;-65
2023/01/23 09:58:28;;;;;;;16.93;13.77;;;;;;;0.06;100.00;98367.69;5017763;28;20224;-63
2023/01/23 10:00:56;;;;;;;16.20;13.53;;;;;;;0.02;100.00;98364.44;5015038;28;20220;-64
2023/01/23 10:03:28;;;;;;;14.63;12.30;;;;;;;0.18;100.00;98371.34;5017850;28;20204;-65
2023/01/23 10:06:06;;;;;;;13.13;11.73;;;;;;;0.16;100.00;98363.59;5018534;28;20211;-63
2023/01/23 10:08:42;;;;;;;16.00;12.90;;;;;;;0.34;100.00;98353.88;5017242;28;20228;-65
2023/01/23 10:11:17;;;;;;;14.63;12.50;;;;;;;0.40;100.00;98361.34;5018261;28;20200;-64
2023/01/23 10:13:57;;;;;;;13.27;11.97;;;;;;;0.45;100.00;98361.06;5015300;28;20192;-65
2023/01/23 10:16:35;;;;;;;14.03;11.60;;;;;;;0.39;100.00;98362.28;5017253;28;20220;-66
2023/01/23 10:19:32;;;;;;;12.17;10.90;;;;;;;0.41;100.00;98362.19;5021337;28;20229;-65
2023/01/23 10:22:02;;;;;;;12.53;10.93;;;;;;;0.31;100.00;98348.84;5017635;28;20612;-65
2023/01/23 10:24:41;;;;;;;13.00;11.70;;;;;;;0.33;100.00;98340.94;5017324;28;20200;-65
2023/01/23 10:27:18;;;;;;;14.87;12.13;;;;;;;0.40;100.00;98337.03;5017949;28;20204;-65
2023/01/23 10:29:49;;;;;;;14.03;12.50;;;;;;;0.43;100.00;98331.63;5015005;28;20234;-65
2023/01/23 10:32:25;;;;;;;11.20;10.00;;;;;;;0.48;100.00;98326.16;5017198;28;20201;-65
2023/01/23 10:34:57;;;;;;;11.90;10.57;;;;;;;0.43;100.00;98331.63;5016177;28;20419;-65
2023/01/23 10:37:41;;;;;;;11.83;10.13;;;;;;;0.57;100.00;98334.28;5014442;28;20208;-64
2023/01/23 10:40:13;;;;;;;11.13;10.00;;;;;;;0.61;100.00;98336.69;5018369;28;20219;-63
2023/01/23 10:42:40;;;;;;;11.97;10.77;;;;;;;0.53;100.00;98344.97;5015132;28;20352;-63
2023/01/23 10:45:15;;;;;;;11.13;10.00;;;;;;;0.63;100.00;98329.59;5012525;28;20645;-63
2023/01/23 10:47:45;;;;;;;12.27;10.97;;;;;;;0.73;100.00;98328.13;5015195;28;20207;-63
2023/01/23 10:50:34;;;;;;;14.50;11.53;;;;;;;0.75;100.00;98314.97;5015597;28;20641;-65
2023/01/23 10:53:06;;;;;;;11.97;10.43;;;;;;;0.71;100.00;98315.16;5014708;28;20226;-64
2023/01/23 10:55:34;;;;;;;11.63;10.47;;;;;;;0.72;100.00;98327.25;5015325;28;20222;-65
2023/01/23 10:58:02;;;;;;;12.57;10.73;;;;;;;0.60;100.00;98328.00;5017587;28;20229;-66
2023/01/23 11:00:35;;;;;;;11.83;10.73;;;;;;;0.46;100.00;98320.19;5017632;28;20255;-65
2023/01/23 11:03:25;;;;;;;13.03;11.73;;;;;;;0.52;100.00;98312.81;5019358;28;20210;-66
2023/01/23 11:05:55;;;;;;;13.87;12.37;;;;;;;0.55;100.00;98312.63;5011216;28;20208;-64
2023/01/23 11:08:25;;;;;;;13.73;12.00;;;;;;;0.74;100.00;98306.31;5010533;28;20251;-65
2023/01/23 11:10:53;;;;;;;12.80;11.30;;;;;;;1.00;100.00;98294.25;5018436;28;20216;-66
2023/01/23 11:13:29;;;;;;;13.40;12.00;;;;;;;0.99;100.00;98302.19;5016915;28;20208;-65
2023/01/23 11:15:57;;;;;;;14.47;12.00;;;;;;;0.99;100.00;98291.75;5013965;28;20218;-65
2023/01/23 11:18:32;;;;;;;13.37;10.70;;;;;;;1.12;100.00;98303.09;5016587;28;20615;-64
2023/01/23 11:21:02;;;;;;;13.87;12.47;;;;;;;1.29;100.00;98299.41;5017907;28;20318;-64
2023/01/23 11:23:30;;;;;;;13.90;12.13;;;;;;;1.22;100.00;98297.28;5012534;28;20205;-65
2023/01/23 11:25:57;;;;;;;13.03;11.20;;;;;;;1.17;100.00;98278.47;5018584;28;20587;-63
2023/01/23 11:28:28;;;;;;;11.83;10.73;;;;;;;1.43;100.00;98285.47;5017107;28;20224;-64